createdAt,value
2018-08-13T00:00:12.243Z,66.90
2018-08-13T00:02:48.143Z,67.10
2018-08-13T00:05:20.272Z,67.60
2018-08-13T00:07:53.411Z,67.70
2018-08-13T00:10:24.811Z,68.00
2018-08-13T00:12:56.242Z,68.00
2018-08-13T00:15:27.924Z,67.90
2018-08-13T00:17:59.596Z,67.50
2018-08-13T00:20:31.193Z,67.20
2018-08-13T00:23:11.538Z,67.80
2018-08-13T00:25:47.148Z,67.40
2018-08-13T00:28:18.657Z,67.20
2018-08-13T00:30:51.454Z,67.00
2018-08-13T00:33:23.145Z,67.10
2018-08-13T00:35:54.845Z,67.80
2018-08-13T00:38:28.465Z,67.80
2018-08-13T00:41:08.330Z,68.00
2018-08-13T00:43:40.377Z,67.40
2018-08-13T00:46:20.542Z,67.10
2018-08-13T00:48:53.122Z,66.90
2018-08-13T00:51:29.202Z,66.90
2018-08-13T00:54:02.372Z,67.00
2018-08-13T00:56:42.249Z,66.80
2018-08-13T00:59:22.603Z,67.40
2018-08-13T01:01:54.585Z,66.40
2018-08-13T01:04:26.237Z,67.70
2018-08-13T01:06:58.383Z,71.90
2018-08-13T01:09:29.861Z,74.20
2018-08-13T01:12:09.722Z,75.20
2018-08-13T01:14:41.682Z,75.00
2018-08-13T01:17:21.831Z,75.20
2018-08-13T01:20:01.967Z,76.10
2018-08-13T01:22:42.786Z,76.20
2018-08-13T01:25:23.567Z,76.60
2018-08-13T01:28:03.199Z,76.60
2018-08-13T01:30:43.365Z,76.90
2018-08-13T01:33:23.081Z,78.50
2018-08-13T01:35:55.034Z,78.40
2018-08-13T01:38:34.884Z,78.40
2018-08-13T01:41:14.625Z,79.10
2018-08-13T01:43:46.566Z,79.90
2018-08-13T01:46:19.015Z,79.10
2018-08-13T01:48:58.839Z,79.30
2018-08-13T01:51:32.699Z,79.60
2018-08-13T01:54:04.660Z,79.10
2018-08-13T01:56:44.608Z,78.40
2018-08-13T01:59:24.571Z,78.90
2018-08-13T02:01:56.603Z,79.10
2018-08-13T02:04:29.152Z,79.30
2018-08-13T02:07:01.111Z,79.70
2018-08-13T02:09:34.221Z,80.00
2018-08-13T02:12:10.471Z,78.80
2018-08-13T02:14:42.402Z,78.40
2018-08-13T02:17:22.458Z,78.10
2018-08-13T02:20:02.879Z,79.30
2018-08-13T02:22:43.037Z,79.60
2018-08-13T02:25:15.866Z,79.40
2018-08-13T02:27:48.016Z,79.00
2018-08-13T02:30:20.216Z,80.60
2018-08-13T02:32:54.006Z,80.90
2018-08-13T02:35:26.460Z,80.90
2018-08-13T02:37:58.379Z,80.40
2018-08-13T02:40:29.889Z,80.10
2018-08-13T02:43:10.454Z,80.60
2018-08-13T02:45:41.464Z,80.60
2018-08-13T02:48:21.462Z,81.10
2018-08-13T02:50:56.492Z,81.40
2018-08-13T02:53:28.673Z,81.90
2018-08-13T02:56:00.962Z,82.30
2018-08-13T02:58:39.492Z,81.90
2018-08-13T03:01:12.246Z,81.80
2018-08-13T03:03:51.949Z,81.50
2018-08-13T03:06:24.060Z,82.00
2018-08-13T03:09:00.260Z,82.80
2018-08-13T03:11:40.250Z,82.80
2018-08-13T03:14:12.494Z,82.50
2018-08-13T03:16:49.464Z,82.70
2018-08-13T03:19:22.695Z,83.30
2018-08-13T03:21:54.516Z,82.00
2018-08-13T03:24:26.916Z,82.90
2018-08-13T03:27:07.364Z,83.20
2018-08-13T03:29:47.146Z,82.80
2018-08-13T03:32:27.043Z,82.80
2018-08-13T03:34:58.992Z,82.70
2018-08-13T03:37:30.932Z,82.00
2018-08-13T03:40:03.177Z,81.70
2018-08-13T03:42:46.156Z,82.20
2018-08-13T03:45:20.073Z,81.90
2018-08-13T03:48:00.007Z,82.90
2018-08-13T03:50:40.229Z,83.00
2018-08-13T03:53:11.901Z,83.00
2018-08-13T03:55:46.142Z,82.80
2018-08-13T03:58:18.070Z,82.10
2018-08-13T04:00:49.989Z,81.60
2018-08-13T04:03:21.989Z,82.30
2018-08-13T04:05:53.599Z,82.50
2018-08-13T04:08:24.829Z,81.60
2018-08-13T04:10:56.219Z,81.80
2018-08-13T04:13:27.880Z,80.10
2018-08-13T04:15:59.569Z,81.60
2018-08-13T04:18:31.090Z,81.20
2018-08-13T04:21:03.131Z,80.80
2018-08-13T04:23:34.963Z,80.90
2018-08-13T04:26:07.829Z,81.70
2018-08-13T04:28:39.729Z,80.40
2018-08-13T04:31:10.840Z,80.90
2018-08-13T04:33:42.372Z,80.30
2018-08-13T04:36:14.009Z,79.90
2018-08-13T04:38:45.739Z,80.30
2018-08-13T04:41:18.099Z,79.50
2018-08-13T04:43:58.113Z,79.20
2018-08-13T04:46:30.323Z,78.50
2018-08-13T04:49:01.233Z,77.80
2018-08-13T04:51:37.733Z,77.60
2018-08-13T04:54:17.830Z,77.30
2018-08-13T04:56:49.931Z,77.20
2018-08-13T04:59:22.271Z,78.30
2018-08-13T05:02:01.931Z,77.30
2018-08-13T05:04:42.128Z,78.30
2018-08-13T05:07:22.226Z,79.00
2018-08-13T05:09:54.192Z,78.90
2018-08-13T05:12:26.151Z,78.70
2018-08-13T05:14:57.710Z,79.00
2018-08-13T05:17:29.391Z,79.70
2018-08-13T05:20:09.602Z,78.60
2018-08-13T05:22:46.161Z,78.40
2018-08-13T05:25:18.871Z,77.60
2018-08-13T05:27:54.839Z,76.70
2018-08-13T05:30:26.875Z,78.00
2018-08-13T05:33:07.077Z,77.50
2018-08-13T05:35:40.307Z,76.40
2018-08-13T05:38:11.941Z,75.50
2018-08-13T05:40:43.036Z,77.20
2018-08-13T05:43:15.827Z,76.40
2018-08-13T05:45:56.096Z,76.60
2018-08-13T05:48:28.078Z,76.20
2018-08-13T05:51:01.187Z,77.30
2018-08-13T05:53:33.096Z,78.50
2018-08-13T05:56:04.707Z,78.40
2018-08-13T05:58:41.034Z,76.50
2018-08-13T06:01:22.058Z,79.10
2018-08-13T06:03:54.218Z,80.10
2018-08-13T06:06:25.969Z,78.50
2018-08-13T06:08:58.469Z,79.20
2018-08-13T06:11:29.928Z,77.60
2018-08-13T06:14:01.773Z,76.40
2018-08-13T06:16:32.828Z,76.00
2018-08-13T06:19:08.537Z,78.00
2018-08-13T06:21:40.228Z,78.30
2018-08-13T06:24:12.190Z,77.10
2018-08-13T06:26:42.729Z,75.30
2018-08-13T06:29:15.037Z,76.60
2018-08-13T06:31:46.957Z,78.90
2018-08-13T06:34:23.488Z,78.60
2018-08-13T06:37:03.558Z,75.40
2018-08-13T06:39:43.849Z,74.50
2018-08-13T06:42:14.758Z,77.10
2018-08-13T06:44:46.281Z,75.20
2018-08-13T06:47:25.050Z,76.00
2018-08-13T06:50:05.115Z,77.90
2018-08-13T06:52:46.047Z,79.40
2018-08-13T06:55:26.212Z,78.80
2018-08-13T06:58:01.960Z,79.70
2018-08-13T07:00:33.711Z,79.40
2018-08-13T07:03:05.812Z,77.20
2018-08-13T07:05:38.010Z,75.80
2018-08-13T07:08:09.701Z,74.20
2018-08-13T07:10:41.651Z,74.30
2018-08-13T07:13:13.071Z,73.20
2018-08-13T07:15:48.239Z,76.30
2018-08-13T07:18:19.961Z,74.20
2018-08-13T07:20:51.591Z,71.00
2018-08-13T07:23:24.484Z,70.60
2018-08-13T07:25:55.700Z,70.90
2018-08-13T07:28:26.900Z,69.30
2018-08-13T07:30:59.005Z,68.60
2018-08-13T07:33:30.687Z,68.60
2018-08-13T07:36:02.491Z,66.90
2018-08-13T07:38:33.780Z,68.00
2018-08-13T07:41:06.280Z,68.40
2018-08-13T07:43:37.367Z,67.10
2018-08-13T07:46:09.950Z,66.50
2018-08-13T07:48:41.191Z,67.70
2018-08-13T07:51:13.669Z,67.10
2018-08-13T07:53:45.410Z,64.00
2018-08-13T07:56:16.661Z,64.70
2018-08-13T07:58:47.841Z,64.10
2018-08-13T08:01:19.160Z,62.90
2018-08-13T08:03:53.030Z,62.90
2018-08-13T08:06:24.615Z,63.50
2018-08-13T08:08:56.190Z,64.30
2018-08-13T08:11:27.562Z,64.20
2018-08-13T08:13:58.761Z,62.10
2018-08-13T08:16:31.321Z,61.40
2018-08-13T08:19:02.801Z,61.30
2018-08-13T08:21:34.760Z,62.20
2018-08-13T08:24:05.832Z,60.50
2018-08-13T08:26:37.100Z,61.30
2018-08-13T08:29:08.933Z,61.50
2018-08-13T08:31:41.271Z,61.30
2018-08-13T08:34:13.231Z,63.00
2018-08-13T08:36:47.500Z,64.20
2018-08-13T08:39:20.147Z,61.90
2018-08-13T08:42:00.763Z,61.90
2018-08-13T08:44:40.639Z,62.10
2018-08-13T08:47:20.636Z,61.70
2018-08-13T08:50:00.536Z,61.50
2018-08-13T08:52:40.585Z,60.60
2018-08-13T08:55:20.655Z,59.70
2018-08-13T08:57:59.929Z,60.60
2018-08-13T09:00:39.457Z,58.90
2018-08-13T09:03:19.392Z,57.20
2018-08-13T09:05:59.453Z,56.80
2018-08-13T09:08:39.081Z,57.20
2018-08-13T09:11:18.634Z,57.30
2018-08-13T09:13:58.253Z,57.60
2018-08-13T09:16:28.928Z,56.30
2018-08-13T09:19:10.772Z,57.20
2018-08-13T09:21:52.689Z,53.50
2018-08-13T09:24:35.199Z,55.00
2018-08-13T09:27:16.636Z,54.60
2018-08-13T09:29:57.474Z,56.60
2018-08-13T09:32:38.334Z,55.80
2018-08-13T09:35:20.049Z,51.80
2018-08-13T09:37:58.416Z,50.80
2018-08-13T09:40:37.481Z,50.10
2018-08-13T09:43:09.768Z,49.80
2018-08-13T09:45:49.360Z,49.50
2018-08-13T09:48:29.447Z,48.10
2018-08-13T09:51:09.378Z,48.20
2018-08-13T09:53:48.515Z,47.00
2018-08-13T09:56:26.162Z,47.00
2018-08-13T09:59:04.338Z,46.90
2018-08-13T10:01:37.659Z,45.00
2018-08-13T10:04:09.658Z,44.70
2018-08-13T10:06:47.935Z,43.80
2018-08-13T10:09:28.175Z,42.70
2018-08-13T10:12:06.937Z,41.60
2018-08-13T10:14:44.575Z,43.00
2018-08-13T10:17:24.475Z,42.20
2018-08-13T10:20:03.972Z,41.80
2018-08-13T10:22:41.152Z,41.80
2018-08-13T10:25:20.872Z,40.70
2018-08-13T10:28:00.942Z,40.90
2018-08-13T10:30:40.460Z,40.70
2018-08-13T10:33:16.678Z,40.60
2018-08-13T10:35:56.426Z,41.70
2018-08-13T10:38:32.176Z,39.60
2018-08-13T10:41:12.360Z,37.70
2018-08-13T10:43:51.797Z,37.80
2018-08-13T10:46:31.668Z,38.50
2018-08-13T10:49:11.789Z,37.60
2018-08-13T10:51:52.014Z,39.80
2018-08-13T10:54:32.060Z,38.30
2018-08-13T10:57:12.239Z,40.10
2018-08-13T10:59:52.600Z,35.80
2018-08-13T11:02:32.295Z,32.90
2018-08-13T11:05:15.883Z,33.90
2018-08-13T11:07:56.960Z,32.70
2018-08-13T11:10:37.421Z,31.10
2018-08-13T11:13:14.789Z,30.70
2018-08-13T11:15:51.072Z,29.00
2018-08-13T11:18:26.957Z,29.70
2018-08-13T11:21:06.636Z,32.10
2018-08-13T11:23:46.081Z,32.40
2018-08-13T11:26:24.307Z,31.60
2018-08-13T11:29:02.457Z,32.40
2018-08-13T11:31:44.432Z,33.30
2018-08-13T11:34:16.672Z,33.90
2018-08-13T11:36:53.099Z,34.10
2018-08-13T11:39:33.208Z,33.40
2018-08-13T11:42:12.915Z,33.80
2018-08-13T11:44:52.910Z,33.50
2018-08-13T11:47:33.163Z,34.90
2018-08-13T11:50:07.543Z,34.60
2018-08-13T11:52:49.303Z,33.50
2018-08-13T11:55:29.816Z,32.50
2018-08-13T11:58:10.060Z,33.10
2018-08-13T12:00:49.933Z,34.50
2018-08-13T12:03:30.029Z,32.80
2018-08-13T12:06:10.433Z,31.20
2018-08-13T12:08:51.033Z,31.10
2018-08-13T12:11:27.845Z,31.20
2018-08-13T12:14:07.975Z,34.50
2018-08-13T12:16:48.078Z,31.90
2018-08-13T12:19:29.258Z,32.10
2018-08-13T12:22:09.107Z,31.80
2018-08-13T12:24:47.635Z,33.30
2018-08-13T12:27:27.736Z,32.10
2018-08-13T12:30:09.372Z,33.80
2018-08-13T12:32:49.935Z,32.80
2018-08-13T12:35:29.566Z,34.60
2018-08-13T12:38:09.212Z,35.40
2018-08-13T12:40:50.410Z,34.30
2018-08-13T12:43:21.471Z,34.20
2018-08-13T12:46:01.269Z,34.70
2018-08-13T12:48:44.167Z,34.40
2018-08-13T12:51:24.202Z,34.40
2018-08-13T12:54:04.310Z,36.10
2018-08-13T12:56:44.563Z,35.00
2018-08-13T12:59:24.453Z,33.90
2018-08-13T13:02:04.118Z,35.60
2018-08-13T13:04:43.611Z,34.30
2018-08-13T13:07:24.038Z,33.20
2018-08-13T13:10:04.100Z,34.50
2018-08-13T13:12:44.450Z,35.10
2018-08-13T13:15:24.709Z,34.10
2018-08-13T13:18:04.676Z,34.40
2018-08-13T13:20:44.265Z,34.10
2018-08-13T13:23:24.334Z,34.20
2018-08-13T13:26:02.663Z,33.80
2018-08-13T13:28:42.635Z,33.50
2018-08-13T13:31:22.716Z,36.80
2018-08-13T13:34:03.279Z,33.20
2018-08-13T13:36:43.340Z,32.10
2018-08-13T13:39:21.828Z,31.90
2018-08-13T13:42:01.651Z,32.00
2018-08-13T13:44:41.072Z,31.10
2018-08-13T13:47:21.210Z,33.20
2018-08-13T13:50:00.897Z,32.10
2018-08-13T13:52:46.514Z,31.30
2018-08-13T13:55:26.889Z,32.40
2018-08-13T13:58:07.051Z,32.90
2018-08-13T14:00:47.425Z,31.90
2018-08-13T14:03:29.082Z,31.80
2018-08-13T14:06:09.827Z,32.00
2018-08-13T14:08:50.554Z,33.60
2018-08-13T14:11:31.746Z,32.10
2018-08-13T14:14:12.580Z,33.10
2018-08-13T14:16:54.224Z,33.10
2018-08-13T14:19:35.914Z,34.90
2018-08-13T14:22:18.464Z,33.20
2018-08-13T14:25:03.238Z,33.70
2018-08-13T14:27:43.149Z,35.20
2018-08-13T14:30:27.589Z,34.50
2018-08-13T14:33:08.273Z,33.50
2018-08-13T14:35:48.637Z,34.80
2018-08-13T14:38:28.836Z,34.40
2018-08-13T14:41:09.278Z,32.60
2018-08-13T14:43:49.886Z,33.20
2018-08-13T14:46:29.601Z,32.10
2018-08-13T14:49:09.997Z,30.40
2018-08-13T14:51:50.452Z,32.00
2018-08-13T14:54:30.271Z,33.30
2018-08-13T14:57:11.445Z,32.20
2018-08-13T14:59:51.510Z,33.40
2018-08-13T15:02:32.523Z,33.60
2018-08-13T15:05:13.465Z,32.50
2018-08-13T15:07:54.046Z,33.70
2018-08-13T15:10:34.484Z,34.70
2018-08-13T15:16:05.923Z,33.50
2018-08-13T15:18:46.706Z,38.80
2018-08-13T15:21:27.038Z,36.50
2018-08-13T15:24:06.977Z,35.10
2018-08-13T15:26:47.237Z,33.10
2018-08-13T15:29:28.079Z,33.50
2018-08-13T15:32:08.315Z,34.00
2018-08-13T15:34:49.308Z,34.10
2018-08-13T15:37:31.154Z,34.00
2018-08-13T15:43:15.615Z,32.80
2018-08-13T15:45:56.089Z,34.00
2018-08-13T15:48:36.874Z,35.20
2018-08-13T15:51:23.204Z,34.70
2018-08-13T15:54:02.865Z,34.10
2018-08-13T15:56:44.067Z,34.20
2018-08-13T15:59:25.381Z,34.20
2018-08-13T16:02:05.998Z,33.40
2018-08-13T16:04:46.184Z,32.90
2018-08-13T16:07:26.321Z,41.40
2018-08-13T16:10:09.361Z,45.70
2018-08-13T16:12:42.950Z,48.40
2018-08-13T16:15:22.842Z,51.20
2018-08-13T16:18:00.019Z,55.30
2018-08-13T16:20:43.647Z,56.90
2018-08-13T16:23:24.451Z,59.60
2018-08-13T16:26:12.396Z,62.30
2018-08-13T16:29:03.085Z,62.60
2018-08-13T16:31:47.775Z,62.00
2018-08-13T16:34:29.827Z,62.40
2018-08-13T16:37:10.661Z,63.70
2018-08-13T16:39:50.588Z,64.90
2018-08-13T16:42:33.698Z,67.30
2018-08-13T16:45:15.686Z,68.80
2018-08-13T16:47:58.046Z,67.50
2018-08-13T16:50:40.450Z,67.20
2018-08-13T16:59:25.044Z,66.80
2018-08-13T17:02:28.139Z,67.80
2018-08-13T17:05:14.328Z,67.80
2018-08-13T17:08:03.274Z,67.50
2018-08-13T17:10:51.313Z,66.20
2018-08-13T17:13:34.449Z,67.60
2018-08-13T17:16:20.508Z,68.60
2018-08-13T17:19:05.514Z,68.10
2018-08-13T17:21:49.954Z,67.80
2018-08-13T17:24:33.385Z,68.10
2018-08-13T17:27:14.620Z,68.30
2018-08-13T17:29:56.739Z,68.10
2018-08-13T17:32:37.817Z,67.30
2018-08-13T17:35:18.541Z,67.00
2018-08-13T17:37:58.948Z,67.60
2018-08-13T17:40:38.949Z,68.50
2018-08-13T17:43:19.206Z,67.20
2018-08-13T17:45:59.448Z,66.50
2018-08-13T17:48:39.412Z,67.40
2018-08-13T17:51:18.723Z,68.20
2018-08-13T17:53:58.837Z,69.30
2018-08-13T17:56:38.720Z,68.40
2018-08-13T17:59:15.203Z,67.30
2018-08-13T18:01:51.441Z,67.40
2018-08-13T18:04:29.162Z,68.00
2018-08-13T18:07:05.604Z,68.70
2018-08-13T18:09:45.313Z,68.90
2018-08-13T18:12:26.384Z,68.90
2018-08-13T18:15:07.478Z,68.90
2018-08-13T18:17:47.865Z,69.40
2018-08-13T18:20:25.037Z,69.90
2018-08-13T18:23:05.218Z,69.30
2018-08-13T18:25:45.630Z,70.30
2018-08-13T18:28:22.978Z,70.00
2018-08-13T18:31:01.416Z,70.00
2018-08-13T18:33:40.359Z,70.80
2018-08-13T18:36:16.284Z,70.20
2018-08-13T18:38:56.090Z,70.10
2018-08-13T18:41:32.878Z,70.00
2018-08-13T18:44:07.258Z,70.30
2018-08-13T18:46:48.402Z,70.60
2018-08-13T18:49:28.151Z,70.20
2018-08-13T18:52:08.039Z,70.60
2018-08-13T18:54:47.646Z,69.90
2018-08-13T18:57:27.482Z,69.60
2018-08-13T19:00:09.518Z,70.30
2018-08-13T19:02:50.220Z,70.50
2018-08-13T19:05:29.987Z,71.30
2018-08-13T19:08:09.542Z,70.80
2018-08-13T19:10:50.378Z,72.00
2018-08-13T19:13:30.005Z,73.80
2018-08-13T19:16:02.036Z,76.30
2018-08-13T19:18:39.605Z,75.60
2018-08-13T19:21:19.371Z,77.40
2018-08-13T19:23:59.133Z,78.40
2018-08-13T19:26:39.255Z,78.30
2018-08-13T19:29:19.519Z,77.90
2018-08-13T19:31:59.463Z,77.40
2018-08-13T19:34:39.777Z,77.70
2018-08-13T19:37:19.675Z,78.00
2018-08-13T19:39:59.208Z,78.00
2018-08-13T19:42:39.045Z,78.20
2018-08-13T19:45:19.682Z,77.70
2018-08-13T19:47:59.229Z,78.10
2018-08-13T19:50:39.220Z,76.50
2018-08-13T19:53:18.614Z,76.10
2018-08-13T19:55:58.892Z,77.70
2018-08-13T19:58:38.681Z,78.30
2018-08-13T20:01:18.495Z,80.80
2018-08-13T20:03:58.005Z,81.50
2018-08-13T20:06:37.816Z,83.10
2018-08-13T20:09:18.109Z,81.70
2018-08-13T20:11:57.646Z,81.20
2018-08-13T20:14:38.267Z,81.10
2018-08-13T20:17:18.585Z,80.30
2018-08-13T20:19:58.627Z,79.20
2018-08-13T20:22:39.190Z,79.10
2018-08-13T20:25:19.792Z,80.40
2018-08-13T20:27:59.972Z,81.50
2018-08-13T20:30:37.433Z,79.40
2018-08-13T20:33:17.454Z,79.10
2018-08-13T20:35:56.803Z,78.80
2018-08-13T20:38:36.051Z,79.30
2018-08-13T20:41:15.703Z,78.30
2018-08-13T20:43:55.875Z,79.30
2018-08-13T20:46:36.405Z,79.90
2018-08-13T20:49:16.012Z,80.40
2018-08-13T20:51:56.516Z,79.00
2018-08-13T20:54:37.052Z,79.30
2018-08-13T20:57:17.261Z,79.40
2018-08-13T20:59:57.546Z,80.90
2018-08-13T21:02:37.604Z,81.80
2018-08-13T21:05:17.653Z,82.00
2018-08-13T21:07:57.509Z,81.70
2018-08-13T21:10:37.946Z,81.60
2018-08-13T21:13:09.877Z,81.70
2018-08-13T21:15:43.557Z,81.80
2018-08-13T21:18:14.027Z,81.30
2018-08-13T21:20:46.067Z,80.40
2018-08-13T21:23:16.907Z,80.40
2018-08-13T21:25:51.017Z,80.40
2018-08-13T21:28:26.539Z,79.90
2018-08-13T21:30:57.899Z,80.00
2018-08-13T21:33:29.497Z,79.80
2018-08-13T21:36:00.197Z,79.60
2018-08-13T21:38:32.037Z,79.60
2018-08-13T21:41:03.467Z,80.30
2018-08-13T21:43:34.328Z,80.70
2018-08-13T21:46:04.688Z,80.20
2018-08-13T21:48:35.797Z,80.10
2018-08-13T21:51:07.061Z,79.40
2018-08-13T21:53:40.088Z,78.90
2018-08-13T21:56:12.518Z,79.40
2018-08-13T21:58:44.738Z,78.40
2018-08-13T22:01:48.068Z,78.60
2018-08-13T22:04:19.702Z,79.10
2018-08-13T22:06:51.937Z,78.90
2018-08-13T22:09:23.937Z,79.10
2018-08-13T22:11:55.527Z,79.70
2018-08-13T22:14:27.588Z,80.00
2018-08-13T22:16:59.567Z,79.90
2018-08-13T22:19:30.877Z,79.70
2018-08-13T22:22:02.618Z,80.20
2018-08-13T22:24:45.237Z,80.30
2018-08-13T22:27:25.031Z,81.20
2018-08-13T22:30:04.735Z,81.30
2018-08-13T22:32:36.804Z,80.60
2018-08-13T22:35:09.235Z,81.20
2018-08-13T22:37:48.676Z,81.80
2018-08-13T22:40:29.116Z,82.60
2018-08-13T22:43:08.965Z,82.20
2018-08-13T22:45:39.893Z,83.20
2018-08-13T22:48:12.487Z,82.90
2018-08-13T22:50:44.447Z,82.60
2018-08-13T22:53:24.010Z,81.60
2018-08-13T22:56:03.931Z,81.90
2018-08-13T22:58:43.298Z,81.90
2018-08-13T23:01:23.436Z,81.60
2018-08-13T23:04:03.164Z,81.80
2018-08-13T23:06:41.743Z,82.40
2018-08-13T23:09:13.834Z,82.90
2018-08-13T23:11:47.212Z,82.40
2018-08-13T23:14:27.098Z,81.80
2018-08-13T23:17:08.633Z,81.90
2018-08-13T23:19:41.315Z,81.80
2018-08-13T23:22:51.147Z,81.90
2018-08-13T23:25:22.999Z,81.50
2018-08-13T23:27:55.635Z,81.90
2018-08-13T23:30:35.923Z,81.20
2018-08-13T23:33:07.286Z,81.50
2018-08-13T23:35:47.138Z,82.00
2018-08-13T23:38:23.668Z,81.70
2018-08-13T23:40:55.152Z,82.20
2018-08-13T23:43:34.748Z,82.30
2018-08-13T23:46:14.343Z,83.20
2018-08-13T23:48:46.184Z,82.80
2018-08-13T23:51:17.905Z,83.10
2018-08-13T23:53:50.893Z,81.70
2018-08-13T23:56:31.053Z,82.70
2018-08-13T23:59:10.804Z,82.20
